sensor_id;sensor_type;location;lat;lon;timestamp;temperature;humidity
1568;DHT22;777;47.156;8.326;2023-05-06T00:01:30;13.30;99.90
1568;DHT22;777;47.156;8.326;2023-05-06T00:03:58;13.30;99.90
1568;DHT22;777;47.156;8.326;2023-05-06T00:06:25;13.20;99.90
1568;DHT22;777;47.156;8.326;2023-05-06T00:08:53;13.20;99.90
1568;DHT22;777;47.156;8.326;2023-05-06T00:11:20;13.10;99.90
1568;DHT22;777;47.156;8.326;2023-05-06T00:13:48;13.20;99.90
1568;DHT22;777;47.156;8.326;2023-05-06T00:16:15;13.20;99.90
1568;DHT22;777;47.156;8.326;2023-05-06T00:18:42;13.20;99.90
1568;DHT22;777;47.156;8.326;2023-05-06T00:21:09;13.10;99.90
1568;DHT22;777;47.156;8.326;2023-05-06T00:23:36;13.10;99.90
1568;DHT22;777;47.156;8.326;2023-05-06T00:26:04;13.10;99.90
1568;DHT22;777;47.156;8.326;2023-05-06T00:28:32;13.00;99.90
1568;DHT22;777;47.156;8.326;2023-05-06T00:31:00;13.00;99.90
1568;DHT22;777;47.156;8.326;2023-05-06T00:33:27;13.10;99.90
1568;DHT22;777;47.156;8.326;2023-05-06T00:35:54;13.20;99.90
1568;DHT22;777;47.156;8.326;2023-05-06T00:38:21;13.10;99.90
1568;DHT22;777;47.156;8.326;2023-05-06T00:40:48;13.20;99.90
1568;DHT22;777;47.156;8.326;2023-05-06T00:43:15;13.20;99.90
1568;DHT22;777;47.156;8.326;2023-05-06T00:45:43;13.20;99.90
1568;DHT22;777;47.156;8.326;2023-05-06T00:48:11;13.20;99.90
1568;DHT22;777;47.156;8.326;2023-05-06T00:50:39;13.20;99.90
1568;DHT22;777;47.156;8.326;2023-05-06T00:53:08;13.10;99.90
1568;DHT22;777;47.156;8.326;2023-05-06T00:55:36;13.00;99.90
1568;DHT22;777;47.156;8.326;2023-05-06T00:58:03;13.00;99.90
1568;DHT22;777;47.156;8.326;2023-05-06T01:00:31;13.10;99.90
1568;DHT22;777;47.156;8.326;2023-05-06T01:02:58;13.10;99.90
1568;DHT22;777;47.156;8.326;2023-05-06T01:05:31;12.90;99.90
1568;DHT22;777;47.156;8.326;2023-05-06T01:08:05;12.90;99.90
1568;DHT22;777;47.156;8.326;2023-05-06T01:10:41;12.90;99.90
1568;DHT22;777;47.156;8.326;2023-05-06T01:13:15;13.00;99.90
1568;DHT22;777;47.156;8.326;2023-05-06T01:15:45;13.10;99.90
1568;DHT22;777;47.156;8.326;2023-05-06T01:18:15;13.10;99.90
1568;DHT22;777;47.156;8.326;2023-05-06T01:20:48;13.10;99.90
1568;DHT22;777;47.156;8.326;2023-05-06T01:23:17;13.10;99.90
1568;DHT22;777;47.156;8.326;2023-05-06T01:25:44;13.10;99.90
1568;DHT22;777;47.156;8.326;2023-05-06T01:28:12;13.20;99.90
1568;DHT22;777;47.156;8.326;2023-05-06T01:30:48;13.00;99.90
1568;DHT22;777;47.156;8.326;2023-05-06T01:33:24;13.00;99.90
1568;DHT22;777;47.156;8.326;2023-05-06T01:35:58;13.00;99.90
1568;DHT22;777;47.156;8.326;2023-05-06T01:38:36;13.00;99.90
1568;DHT22;777;47.156;8.326;2023-05-06T01:41:04;13.10;99.90
1568;DHT22;777;47.156;8.326;2023-05-06T01:43:36;13.10;99.90
1568;DHT22;777;47.156;8.326;2023-05-06T01:46:04;13.00;99.90
1568;DHT22;777;47.156;8.326;2023-05-06T01:48:35;12.70;99.90
1568;DHT22;777;47.156;8.326;2023-05-06T01:51:03;12.70;99.90
1568;DHT22;777;47.156;8.326;2023-05-06T01:53:32;12.70;99.90
1568;DHT22;777;47.156;8.326;2023-05-06T01:55:59;12.80;99.90
1568;DHT22;777;47.156;8.326;2023-05-06T01:58:26;12.60;99.90
1568;DHT22;777;47.156;8.326;2023-05-06T02:00:53;12.60;99.90
1568;DHT22;777;47.156;8.326;2023-05-06T02:03:20;12.70;99.90
1568;DHT22;777;47.156;8.326;2023-05-06T02:05:47;12.80;99.90
1568;DHT22;777;47.156;8.326;2023-05-06T02:08:15;12.80;99.90
1568;DHT22;777;47.156;8.326;2023-05-06T02:10:44;12.60;99.90
1568;DHT22;777;47.156;8.326;2023-05-06T02:13:11;12.70;99.90
1568;DHT22;777;47.156;8.326;2023-05-06T02:15:38;12.70;99.90
1568;DHT22;777;47.156;8.326;2023-05-06T02:18:08;12.70;99.90
1568;DHT22;777;47.156;8.326;2023-05-06T02:20:36;12.60;99.90
1568;DHT22;777;47.156;8.326;2023-05-06T02:23:03;12.50;99.90
1568;DHT22;777;47.156;8.326;2023-05-06T02:25:30;12.60;99.90
1568;DHT22;777;47.156;8.326;2023-05-06T02:27:58;12.70;99.90
1568;DHT22;777;47.156;8.326;2023-05-06T02:30:25;12.70;99.90
1568;DHT22;777;47.156;8.326;2023-05-06T02:32:55;12.70;99.90
1568;DHT22;777;47.156;8.326;2023-05-06T02:35:22;12.70;99.90
1568;DHT22;777;47.156;8.326;2023-05-06T02:37:49;12.70;99.90
1568;DHT22;777;47.156;8.326;2023-05-06T02:40:16;12.80;99.90
1568;DHT22;777;47.156;8.326;2023-05-06T02:42:44;12.80;99.90
1568;DHT22;777;47.156;8.326;2023-05-06T02:45:13;12.80;99.90
1568;DHT22;777;47.156;8.326;2023-05-06T02:47:40;12.80;99.90
1568;DHT22;777;47.156;8.326;2023-05-06T02:50:07;12.60;99.90
1568;DHT22;777;47.156;8.326;2023-05-06T02:52:34;12.70;99.90
1568;DHT22;777;47.156;8.326;2023-05-06T02:55:02;12.70;99.90
1568;DHT22;777;47.156;8.326;2023-05-06T02:57:29;12.80;99.90
1568;DHT22;777;47.156;8.326;2023-05-06T02:59:56;12.80;99.90
1568;DHT22;777;47.156;8.326;2023-05-06T03:02:24;12.80;99.90
1568;DHT22;777;47.156;8.326;2023-05-06T03:04:51;12.80;99.90
1568;DHT22;777;47.156;8.326;2023-05-06T03:07:19;12.90;99.90
1568;DHT22;777;47.156;8.326;2023-05-06T03:09:46;12.90;99.90
1568;DHT22;777;47.156;8.326;2023-05-06T03:12:13;12.80;99.90
1568;DHT22;777;47.156;8.326;2023-05-06T03:14:41;12.80;99.90
1568;DHT22;777;47.156;8.326;2023-05-06T03:17:08;12.90;99.90
1568;DHT22;777;47.156;8.326;2023-05-06T03:19:37;12.70;99.90
1568;DHT22;777;47.156;8.326;2023-05-06T03:22:06;12.50;99.90
1568;DHT22;777;47.156;8.326;2023-05-06T03:24:37;12.50;99.90
1568;DHT22;777;47.156;8.326;2023-05-06T03:27:05;12.60;99.90
1568;DHT22;777;47.156;8.326;2023-05-06T03:29:32;12.60;99.90
1568;DHT22;777;47.156;8.326;2023-05-06T03:32:01;12.70;99.90
1568;DHT22;777;47.156;8.326;2023-05-06T03:34:31;12.70;99.90
1568;DHT22;777;47.156;8.326;2023-05-06T03:37:00;12.90;99.90
1568;DHT22;777;47.156;8.326;2023-05-06T03:39:28;12.80;99.90
1568;DHT22;777;47.156;8.326;2023-05-06T03:41:56;12.90;99.90
1568;DHT22;777;47.156;8.326;2023-05-06T03:44:24;12.90;99.90
1568;DHT22;777;47.156;8.326;2023-05-06T03:46:51;12.90;99.90
1568;DHT22;777;47.156;8.326;2023-05-06T03:49:18;12.80;99.90
1568;DHT22;777;47.156;8.326;2023-05-06T03:51:47;12.70;99.90
1568;DHT22;777;47.156;8.326;2023-05-06T03:54:17;12.70;99.90
1568;DHT22;777;47.156;8.326;2023-05-06T03:56:45;12.70;99.90
1568;DHT22;777;47.156;8.326;2023-05-06T03:59:13;12.70;99.90
1568;DHT22;777;47.156;8.326;2023-05-06T04:01:41;12.60;99.90
1568;DHT22;777;47.156;8.326;2023-05-06T04:04:09;12.70;99.90
1568;DHT22;777;47.156;8.326;2023-05-06T04:06:36;12.70;99.90
1568;DHT22;777;47.156;8.326;2023-05-06T04:09:03;12.60;99.90
1568;DHT22;777;47.156;8.326;2023-05-06T04:11:34;12.70;99.90
1568;DHT22;777;47.156;8.326;2023-05-06T04:14:03;12.80;99.90
1568;DHT22;777;47.156;8.326;2023-05-06T04:16:30;12.80;99.90
1568;DHT22;777;47.156;8.326;2023-05-06T04:18:57;12.90;99.90
1568;DHT22;777;47.156;8.326;2023-05-06T04:21:24;12.90;99.90
1568;DHT22;777;47.156;8.326;2023-05-06T04:23:57;12.90;99.90
1568;DHT22;777;47.156;8.326;2023-05-06T04:26:33;12.90;99.90
1568;DHT22;777;47.156;8.326;2023-05-06T04:29:00;12.90;99.90
1568;DHT22;777;47.156;8.326;2023-05-06T04:31:29;12.80;99.90
1568;DHT22;777;47.156;8.326;2023-05-06T04:34:01;12.90;99.90
1568;DHT22;777;47.156;8.326;2023-05-06T04:36:29;12.80;99.90
1568;DHT22;777;47.156;8.326;2023-05-06T04:39:19;12.80;99.90
1568;DHT22;777;47.156;8.326;2023-05-06T04:41:49;12.70;99.90
1568;DHT22;777;47.156;8.326;2023-05-06T04:44:23;12.70;99.90
1568;DHT22;777;47.156;8.326;2023-05-06T04:46:51;12.70;99.90
1568;DHT22;777;47.156;8.326;2023-05-06T04:49:18;12.80;99.90
1568;DHT22;777;47.156;8.326;2023-05-06T04:51:45;12.80;99.90
1568;DHT22;777;47.156;8.326;2023-05-06T04:54:13;12.70;99.90
1568;DHT22;777;47.156;8.326;2023-05-06T04:56:40;12.70;99.90
1568;DHT22;777;47.156;8.326;2023-05-06T04:59:10;12.70;99.90
1568;DHT22;777;47.156;8.326;2023-05-06T05:01:40;12.90;99.90
1568;DHT22;777;47.156;8.326;2023-05-06T05:04:09;13.10;99.90
1568;DHT22;777;47.156;8.326;2023-05-06T05:06:36;13.10;99.90
1568;DHT22;777;47.156;8.326;2023-05-06T05:09:03;13.00;99.90
1568;DHT22;777;47.156;8.326;2023-05-06T05:11:31;13.10;99.90
1568;DHT22;777;47.156;8.326;2023-05-06T05:13:58;13.20;99.90
1568;DHT22;777;47.156;8.326;2023-05-06T05:16:27;13.30;99.90
1568;DHT22;777;47.156;8.326;2023-05-06T05:18:55;13.50;99.90
1568;DHT22;777;47.156;8.326;2023-05-06T05:21:26;13.90;99.90
1568;DHT22;777;47.156;8.326;2023-05-06T05:23:54;14.20;99.90
1568;DHT22;777;47.156;8.326;2023-05-06T05:26:21;14.30;99.90
1568;DHT22;777;47.156;8.326;2023-05-06T05:28:51;14.50;99.90
1568;DHT22;777;47.156;8.326;2023-05-06T05:31:18;14.50;99.90
1568;DHT22;777;47.156;8.326;2023-05-06T05:33:46;14.50;99.90
1568;DHT22;777;47.156;8.326;2023-05-06T05:36:17;14.40;99.90
1568;DHT22;777;47.156;8.326;2023-05-06T05:38:46;14.30;99.90
1568;DHT22;777;47.156;8.326;2023-05-06T05:41:14;13.80;99.90
1568;DHT22;777;47.156;8.326;2023-05-06T05:43:41;13.60;99.90
1568;DHT22;777;47.156;8.326;2023-05-06T05:46:08;13.60;99.90
1568;DHT22;777;47.156;8.326;2023-05-06T05:48:36;13.70;99.90
1568;DHT22;777;47.156;8.326;2023-05-06T05:51:06;13.80;99.90
1568;DHT22;777;47.156;8.326;2023-05-06T05:53:33;14.00;99.90
1568;DHT22;777;47.156;8.326;2023-05-06T05:56:00;13.90;99.90
1568;DHT22;777;47.156;8.326;2023-05-06T05:58:27;13.90;99.90
1568;DHT22;777;47.156;8.326;2023-05-06T06:00:57;13.90;99.90
1568;DHT22;777;47.156;8.326;2023-05-06T06:03:24;14.10;99.90
1568;DHT22;777;47.156;8.326;2023-05-06T06:05:51;14.70;99.90
1568;DHT22;777;47.156;8.326;2023-05-06T06:08:21;15.30;99.90
1568;DHT22;777;47.156;8.326;2023-05-06T06:10:50;15.60;99.90
1568;DHT22;777;47.156;8.326;2023-05-06T06:13:22;16.00;99.90
1568;DHT22;777;47.156;8.326;2023-05-06T06:15:49;16.90;99.90
1568;DHT22;777;47.156;8.326;2023-05-06T06:18:16;17.00;99.90
1568;DHT22;777;47.156;8.326;2023-05-06T06:20:43;16.70;99.90
1568;DHT22;777;47.156;8.326;2023-05-06T06:23:12;16.30;99.90
1568;DHT22;777;47.156;8.326;2023-05-06T06:25:40;16.20;99.90
1568;DHT22;777;47.156;8.326;2023-05-06T06:28:08;16.00;99.90
1568;DHT22;777;47.156;8.326;2023-05-06T06:30:35;16.50;99.90
1568;DHT22;777;47.156;8.326;2023-05-06T06:33:02;17.30;99.90
1568;DHT22;777;47.156;8.326;2023-05-06T06:35:29;17.80;99.90
1568;DHT22;777;47.156;8.326;2023-05-06T06:37:56;18.20;99.90
1568;DHT22;777;47.156;8.326;2023-05-06T06:40:23;18.30;99.90
1568;DHT22;777;47.156;8.326;2023-05-06T06:42:51;17.70;99.90
1568;DHT22;777;47.156;8.326;2023-05-06T06:45:48;17.60;99.90
1568;DHT22;777;47.156;8.326;2023-05-06T06:48:15;17.40;99.90
1568;DHT22;777;47.156;8.326;2023-05-06T06:50:42;17.00;99.90
1568;DHT22;777;47.156;8.326;2023-05-06T06:53:09;16.80;99.90
1568;DHT22;777;47.156;8.326;2023-05-06T06:55:36;16.80;99.90
1568;DHT22;777;47.156;8.326;2023-05-06T06:58:05;16.70;99.90
1568;DHT22;777;47.156;8.326;2023-05-06T07:00:32;16.60;99.90
1568;DHT22;777;47.156;8.326;2023-05-06T07:02:59;16.80;99.90
1568;DHT22;777;47.156;8.326;2023-05-06T07:05:26;16.90;99.90
1568;DHT22;777;47.156;8.326;2023-05-06T07:07:53;17.00;99.90
1568;DHT22;777;47.156;8.326;2023-05-06T07:10:20;17.20;99.90
1568;DHT22;777;47.156;8.326;2023-05-06T07:12:47;17.30;99.90
1568;DHT22;777;47.156;8.326;2023-05-06T07:15:15;17.50;99.90
1568;DHT22;777;47.156;8.326;2023-05-06T07:17:42;17.70;99.90
1568;DHT22;777;47.156;8.326;2023-05-06T07:20:10;17.80;99.90
1568;DHT22;777;47.156;8.326;2023-05-06T07:22:38;17.90;99.90
1568;DHT22;777;47.156;8.326;2023-05-06T07:25:06;17.80;99.90
1568;DHT22;777;47.156;8.326;2023-05-06T07:27:33;17.90;99.90
1568;DHT22;777;47.156;8.326;2023-05-06T07:30:00;17.80;99.90
1568;DHT22;777;47.156;8.326;2023-05-06T07:32:29;17.70;99.90
1568;DHT22;777;47.156;8.326;2023-05-06T07:34:56;17.50;99.90
1568;DHT22;777;47.156;8.326;2023-05-06T07:37:23;17.80;99.90
1568;DHT22;777;47.156;8.326;2023-05-06T07:39:50;18.60;99.90
1568;DHT22;777;47.156;8.326;2023-05-06T07:42:17;19.20;99.90
1568;DHT22;777;47.156;8.326;2023-05-06T07:44:44;19.50;99.90
1568;DHT22;777;47.156;8.326;2023-05-06T07:47:13;19.50;99.90
1568;DHT22;777;47.156;8.326;2023-05-06T07:49:41;19.30;99.90
1568;DHT22;777;47.156;8.326;2023-05-06T07:52:08;19.40;99.90
1568;DHT22;777;47.156;8.326;2023-05-06T07:54:35;19.90;99.90
1568;DHT22;777;47.156;8.326;2023-05-06T07:57:02;19.80;99.90
1568;DHT22;777;47.156;8.326;2023-05-06T07:59:29;19.90;99.90
1568;DHT22;777;47.156;8.326;2023-05-06T08:01:56;20.20;99.90
1568;DHT22;777;47.156;8.326;2023-05-06T08:04:23;19.90;99.90
1568;DHT22;777;47.156;8.326;2023-05-06T08:06:52;20.40;99.90
1568;DHT22;777;47.156;8.326;2023-05-06T08:09:18;20.90;99.90
1568;DHT22;777;47.156;8.326;2023-05-06T08:11:45;20.00;99.90
1568;DHT22;777;47.156;8.326;2023-05-06T08:14:12;20.10;99.90
1568;DHT22;777;47.156;8.326;2023-05-06T08:16:39;19.90;99.90
1568;DHT22;777;47.156;8.326;2023-05-06T08:19:06;19.80;99.90
1568;DHT22;777;47.156;8.326;2023-05-06T08:21:33;19.80;99.90
1568;DHT22;777;47.156;8.326;2023-05-06T08:24:02;19.60;99.90
1568;DHT22;777;47.156;8.326;2023-05-06T08:26:29;19.60;99.90
1568;DHT22;777;47.156;8.326;2023-05-06T08:28:56;19.30;99.90
1568;DHT22;777;47.156;8.326;2023-05-06T08:31:24;19.30;99.90
1568;DHT22;777;47.156;8.326;2023-05-06T08:33:51;19.60;99.90
1568;DHT22;777;47.156;8.326;2023-05-06T08:36:18;19.50;99.90
1568;DHT22;777;47.156;8.326;2023-05-06T08:38:45;19.40;99.90
1568;DHT22;777;47.156;8.326;2023-05-06T08:41:18;18.80;99.90
1568;DHT22;777;47.156;8.326;2023-05-06T08:43:47;18.50;99.90
1568;DHT22;777;47.156;8.326;2023-05-06T08:46:15;18.20;99.90
1568;DHT22;777;47.156;8.326;2023-05-06T08:48:42;18.50;99.90
1568;DHT22;777;47.156;8.326;2023-05-06T08:51:12;18.90;99.90
1568;DHT22;777;47.156;8.326;2023-05-06T08:53:42;19.30;99.90
1568;DHT22;777;47.156;8.326;2023-05-06T08:56:12;19.90;99.90
1568;DHT22;777;47.156;8.326;2023-05-06T08:58:43;20.30;99.90
1568;DHT22;777;47.156;8.326;2023-05-06T09:01:14;20.10;99.90
1568;DHT22;777;47.156;8.326;2023-05-06T09:03:41;20.20;99.90
1568;DHT22;777;47.156;8.326;2023-05-06T09:06:09;19.60;99.90
1568;DHT22;777;47.156;8.326;2023-05-06T09:08:36;18.70;99.90
1568;DHT22;777;47.156;8.326;2023-05-06T09:11:18;18.60;99.90
1568;DHT22;777;47.156;8.326;2023-05-06T09:13:47;18.80;99.90
1568;DHT22;777;47.156;8.326;2023-05-06T09:16:26;18.90;99.90
1568;DHT22;777;47.156;8.326;2023-05-06T09:18:53;19.30;99.90
1568;DHT22;777;47.156;8.326;2023-05-06T09:21:20;19.40;99.90
1568;DHT22;777;47.156;8.326;2023-05-06T09:23:48;19.60;99.90
1568;DHT22;777;47.156;8.326;2023-05-06T09:26:15;19.30;99.90
1568;DHT22;777;47.156;8.326;2023-05-06T09:28:44;19.20;99.90
1568;DHT22;777;47.156;8.326;2023-05-06T09:31:14;19.20;99.90
1568;DHT22;777;47.156;8.326;2023-05-06T09:33:41;19.30;99.90
1568;DHT22;777;47.156;8.326;2023-05-06T09:36:08;19.50;99.90
1568;DHT22;777;47.156;8.326;2023-05-06T09:38:38;19.70;99.90
1568;DHT22;777;47.156;8.326;2023-05-06T09:41:06;20.20;99.90
1568;DHT22;777;47.156;8.326;2023-05-06T09:43:33;20.40;99.90
1568;DHT22;777;47.156;8.326;2023-05-06T09:46:01;21.30;99.90
1568;DHT22;777;47.156;8.326;2023-05-06T09:48:32;20.90;99.90
1568;DHT22;777;47.156;8.326;2023-05-06T09:50:59;20.60;99.90
1568;DHT22;777;47.156;8.326;2023-05-06T09:53:28;20.70;99.90
1568;DHT22;777;47.156;8.326;2023-05-06T09:55:56;21.40;99.90
1568;DHT22;777;47.156;8.326;2023-05-06T09:58:25;21.00;99.90
1568;DHT22;777;47.156;8.326;2023-05-06T10:00:53;21.50;99.90
1568;DHT22;777;47.156;8.326;2023-05-06T10:03:21;21.40;99.90
1568;DHT22;777;47.156;8.326;2023-05-06T10:05:51;21.30;99.90
1568;DHT22;777;47.156;8.326;2023-05-06T10:08:19;20.90;99.90
1568;DHT22;777;47.156;8.326;2023-05-06T10:10:48;21.40;99.90
1568;DHT22;777;47.156;8.326;2023-05-06T10:13:16;21.60;99.90
1568;DHT22;777;47.156;8.326;2023-05-06T10:15:45;21.20;99.90
1568;DHT22;777;47.156;8.326;2023-05-06T10:18:15;21.10;99.90
1568;DHT22;777;47.156;8.326;2023-05-06T10:20:43;20.30;99.90
1568;DHT22;777;47.156;8.326;2023-05-06T10:23:20;20.30;99.90
1568;DHT22;777;47.156;8.326;2023-05-06T10:25:52;21.10;99.90
1568;DHT22;777;47.156;8.326;2023-05-06T10:28:20;20.70;99.90
1568;DHT22;777;47.156;8.326;2023-05-06T10:30:49;20.90;99.90
1568;DHT22;777;47.156;8.326;2023-05-06T10:33:16;21.90;99.90
1568;DHT22;777;47.156;8.326;2023-05-06T10:35:51;21.80;99.90
1568;DHT22;777;47.156;8.326;2023-05-06T10:38:25;22.20;99.90
1568;DHT22;777;47.156;8.326;2023-05-06T10:40:53;22.90;99.90
1568;DHT22;777;47.156;8.326;2023-05-06T10:43:27;24.10;99.90
1568;DHT22;777;47.156;8.326;2023-05-06T10:46:03;24.60;99.90
1568;DHT22;777;47.156;8.326;2023-05-06T10:48:31;23.70;99.90
1568;DHT22;777;47.156;8.326;2023-05-06T10:51:20;23.30;99.90
1568;DHT22;777;47.156;8.326;2023-05-06T10:54:00;23.80;99.90
1568;DHT22;777;47.156;8.326;2023-05-06T10:56:31;24.60;99.90
1568;DHT22;777;47.156;8.326;2023-05-06T10:59:04;25.10;99.90
1568;DHT22;777;47.156;8.326;2023-05-06T11:01:33;25.50;99.90
1568;DHT22;777;47.156;8.326;2023-05-06T11:04:07;25.90;99.90
1568;DHT22;777;47.156;8.326;2023-05-06T11:06:37;24.80;99.90
1568;DHT22;777;47.156;8.326;2023-05-06T11:09:14;24.10;99.90
1568;DHT22;777;47.156;8.326;2023-05-06T11:11:50;24.30;99.90
1568;DHT22;777;47.156;8.326;2023-05-06T11:14:28;23.40;99.90
1568;DHT22;777;47.156;8.326;2023-05-06T11:16:57;23.20;99.90
1568;DHT22;777;47.156;8.326;2023-05-06T11:19:27;22.70;99.90
1568;DHT22;777;47.156;8.326;2023-05-06T11:21:55;22.50;99.90
1568;DHT22;777;47.156;8.326;2023-05-06T11:24:26;22.00;99.90
1568;DHT22;777;47.156;8.326;2023-05-06T11:26:53;22.30;99.90
1568;DHT22;777;47.156;8.326;2023-05-06T11:29:21;22.00;99.90
1568;DHT22;777;47.156;8.326;2023-05-06T11:31:48;22.30;99.90
1568;DHT22;777;47.156;8.326;2023-05-06T11:34:22;23.10;99.90
1568;DHT22;777;47.156;8.326;2023-05-06T11:36:58;23.60;99.90
1568;DHT22;777;47.156;8.326;2023-05-06T11:39:29;23.80;99.90
1568;DHT22;777;47.156;8.326;2023-05-06T11:41:57;23.60;99.90
1568;DHT22;777;47.156;8.326;2023-05-06T11:44:26;24.10;99.90
1568;DHT22;777;47.156;8.326;2023-05-06T11:47:01;24.30;99.90
1568;DHT22;777;47.156;8.326;2023-05-06T11:49:34;25.80;99.90
1568;DHT22;777;47.156;8.326;2023-05-06T11:52:02;25.80;99.90
1568;DHT22;777;47.156;8.326;2023-05-06T11:54:33;25.80;99.90
1568;DHT22;777;47.156;8.326;2023-05-06T11:57:01;24.40;99.90
1568;DHT22;777;47.156;8.326;2023-05-06T11:59:30;24.20;99.90
1568;DHT22;777;47.156;8.326;2023-05-06T12:01:58;24.80;99.90
1568;DHT22;777;47.156;8.326;2023-05-06T12:04:26;25.70;99.90
1568;DHT22;777;47.156;8.326;2023-05-06T12:06:53;25.70;99.90
1568;DHT22;777;47.156;8.326;2023-05-06T12:09:20;26.20;99.90
1568;DHT22;777;47.156;8.326;2023-05-06T12:11:50;25.80;99.90
1568;DHT22;777;47.156;8.326;2023-05-06T12:14:18;25.40;99.90
1568;DHT22;777;47.156;8.326;2023-05-06T12:16:45;26.20;99.90
1568;DHT22;777;47.156;8.326;2023-05-06T12:19:15;27.00;99.90
1568;DHT22;777;47.156;8.326;2023-05-06T12:21:43;24.80;99.90
1568;DHT22;777;47.156;8.326;2023-05-06T12:24:11;25.10;99.90
1568;DHT22;777;47.156;8.326;2023-05-06T12:26:43;24.10;99.90
1568;DHT22;777;47.156;8.326;2023-05-06T12:29:14;23.40;99.90
1568;DHT22;777;47.156;8.326;2023-05-06T12:31:43;23.80;99.90
1568;DHT22;777;47.156;8.326;2023-05-06T12:34:12;24.80;99.90
1568;DHT22;777;47.156;8.326;2023-05-06T12:39:08;25.30;99.90
1568;DHT22;777;47.156;8.326;2023-05-06T12:41:38;24.80;99.90
1568;DHT22;777;47.156;8.326;2023-05-06T12:44:32;25.30;99.90
1568;DHT22;777;47.156;8.326;2023-05-06T12:47:00;26.30;99.90
1568;DHT22;777;47.156;8.326;2023-05-06T12:49:43;28.90;99.90
1568;DHT22;777;47.156;8.326;2023-05-06T12:52:11;30.50;99.90
1568;DHT22;777;47.156;8.326;2023-05-06T12:54:38;29.60;99.90
1568;DHT22;777;47.156;8.326;2023-05-06T12:57:05;29.10;99.90
1568;DHT22;777;47.156;8.326;2023-05-06T12:59:34;29.80;99.90
1568;DHT22;777;47.156;8.326;2023-05-06T13:02:01;28.70;99.90
1568;DHT22;777;47.156;8.326;2023-05-06T13:04:28;27.40;99.90
1568;DHT22;777;47.156;8.326;2023-05-06T13:06:56;27.70;99.90
1568;DHT22;777;47.156;8.326;2023-05-06T13:09:23;26.60;99.90
1568;DHT22;777;47.156;8.326;2023-05-06T13:11:50;26.30;99.90
1568;DHT22;777;47.156;8.326;2023-05-06T13:14:17;26.40;99.90
1568;DHT22;777;47.156;8.326;2023-05-06T13:16:46;26.80;99.90
1568;DHT22;777;47.156;8.326;2023-05-06T13:19:13;27.50;99.90
1568;DHT22;777;47.156;8.326;2023-05-06T13:21:40;29.70;99.90
1568;DHT22;777;47.156;8.326;2023-05-06T13:24:07;29.50;99.90
1568;DHT22;777;47.156;8.326;2023-05-06T13:26:35;28.80;99.90
1568;DHT22;777;47.156;8.326;2023-05-06T13:29:02;29.70;99.90
1568;DHT22;777;47.156;8.326;2023-05-06T13:31:29;31.00;99.90
1568;DHT22;777;47.156;8.326;2023-05-06T13:33:58;32.00;99.90
1568;DHT22;777;47.156;8.326;2023-05-06T13:36:25;32.60;98.90
1568;DHT22;777;47.156;8.326;2023-05-06T13:38:52;32.10;98.10
1568;DHT22;777;47.156;8.326;2023-05-06T13:41:22;32.60;98.10
1568;DHT22;777;47.156;8.326;2023-05-06T13:43:50;32.60;96.90
1568;DHT22;777;47.156;8.326;2023-05-06T13:46:17;32.80;96.10
1568;DHT22;777;47.156;8.326;2023-05-06T13:48:44;31.60;95.50
1568;DHT22;777;47.156;8.326;2023-05-06T13:51:12;30.20;96.40
1568;DHT22;777;47.156;8.326;2023-05-06T13:53:39;28.40;98.80
1568;DHT22;777;47.156;8.326;2023-05-06T13:56:06;26.70;99.90
1568;DHT22;777;47.156;8.326;2023-05-06T13:58:33;25.70;99.90
1568;DHT22;777;47.156;8.326;2023-05-06T14:01:01;25.70;99.90
1568;DHT22;777;47.156;8.326;2023-05-06T14:03:28;25.60;99.90
1568;DHT22;777;47.156;8.326;2023-05-06T14:05:55;25.80;99.90
1568;DHT22;777;47.156;8.326;2023-05-06T14:08:24;26.90;99.90
1568;DHT22;777;47.156;8.326;2023-05-06T14:10:51;26.30;99.90
1568;DHT22;777;47.156;8.326;2023-05-06T14:13:18;27.00;99.90
1568;DHT22;777;47.156;8.326;2023-05-06T14:15:45;27.60;99.90
1568;DHT22;777;47.156;8.326;2023-05-06T14:18:12;28.90;99.90
1568;DHT22;777;47.156;8.326;2023-05-06T14:20:39;29.70;99.90
1568;DHT22;777;47.156;8.326;2023-05-06T14:23:06;31.50;99.90
1568;DHT22;777;47.156;8.326;2023-05-06T14:25:35;32.50;98.50
1568;DHT22;777;47.156;8.326;2023-05-06T14:28:02;32.90;95.90
1568;DHT22;777;47.156;8.326;2023-05-06T14:30:29;32.80;95.40
1568;DHT22;777;47.156;8.326;2023-05-06T14:32:57;32.50;95.30
1568;DHT22;777;47.156;8.326;2023-05-06T14:35:24;32.30;95.30
1568;DHT22;777;47.156;8.326;2023-05-06T14:37:51;32.10;94.80
1568;DHT22;777;47.156;8.326;2023-05-06T14:40:18;31.50;95.50
1568;DHT22;777;47.156;8.326;2023-05-06T14:42:47;30.70;96.20
1568;DHT22;777;47.156;8.326;2023-05-06T14:45:14;31.20;96.10
1568;DHT22;777;47.156;8.326;2023-05-06T14:47:41;29.90;97.20
1568;DHT22;777;47.156;8.326;2023-05-06T14:50:09;29.00;97.70
1568;DHT22;777;47.156;8.326;2023-05-06T14:52:38;28.70;98.30
1568;DHT22;777;47.156;8.326;2023-05-06T14:55:07;29.70;98.30
1568;DHT22;777;47.156;8.326;2023-05-06T14:57:35;29.30;97.60
1568;DHT22;777;47.156;8.326;2023-05-06T15:00:05;29.70;97.30
1568;DHT22;777;47.156;8.326;2023-05-06T15:02:34;29.50;97.50
1568;DHT22;777;47.156;8.326;2023-05-06T15:05:01;29.50;97.20
1568;DHT22;777;47.156;8.326;2023-05-06T15:07:29;28.10;98.10
1568;DHT22;777;47.156;8.326;2023-05-06T15:09:56;28.30;99.10
1568;DHT22;777;47.156;8.326;2023-05-06T15:12:23;28.80;99.40
1568;DHT22;777;47.156;8.326;2023-05-06T15:14:50;27.90;99.80
1568;DHT22;777;47.156;8.326;2023-05-06T15:17:19;27.30;99.90
1568;DHT22;777;47.156;8.326;2023-05-06T15:19:46;26.60;99.90
1568;DHT22;777;47.156;8.326;2023-05-06T15:22:13;25.40;99.90
1568;DHT22;777;47.156;8.326;2023-05-06T15:24:41;24.30;99.90
1568;DHT22;777;47.156;8.326;2023-05-06T15:27:08;23.70;99.90
1568;DHT22;777;47.156;8.326;2023-05-06T15:29:36;23.40;99.90
1568;DHT22;777;47.156;8.326;2023-05-06T15:32:03;23.20;99.90
1568;DHT22;777;47.156;8.326;2023-05-06T15:34:32;22.90;99.90
1568;DHT22;777;47.156;8.326;2023-05-06T15:36:59;22.80;99.90
1568;DHT22;777;47.156;8.326;2023-05-06T15:39:26;23.00;99.90
1568;DHT22;777;47.156;8.326;2023-05-06T15:41:53;22.60;99.90
1568;DHT22;777;47.156;8.326;2023-05-06T15:44:20;22.50;99.90
1568;DHT22;777;47.156;8.326;2023-05-06T15:46:47;22.70;99.90
1568;DHT22;777;47.156;8.326;2023-05-06T15:49:14;22.50;99.90
1568;DHT22;777;47.156;8.326;2023-05-06T15:51:42;22.50;99.90
1568;DHT22;777;47.156;8.326;2023-05-06T15:54:09;22.30;99.90
1568;DHT22;777;47.156;8.326;2023-05-06T15:56:36;22.40;99.90
1568;DHT22;777;47.156;8.326;2023-05-06T15:59:03;22.50;99.90
1568;DHT22;777;47.156;8.326;2023-05-06T16:01:33;22.40;99.90
1568;DHT22;777;47.156;8.326;2023-05-06T16:04:00;22.40;99.90
1568;DHT22;777;47.156;8.326;2023-05-06T16:06:27;22.40;99.90
1568;DHT22;777;47.156;8.326;2023-05-06T16:08:55;22.30;99.90
1568;DHT22;777;47.156;8.326;2023-05-06T16:11:22;22.40;99.90
1568;DHT22;777;47.156;8.326;2023-05-06T16:13:49;22.50;99.90
1568;DHT22;777;47.156;8.326;2023-05-06T16:16:16;22.70;99.90
1568;DHT22;777;47.156;8.326;2023-05-06T16:18:43;22.80;99.90
1568;DHT22;777;47.156;8.326;2023-05-06T16:21:10;23.40;99.90
1568;DHT22;777;47.156;8.326;2023-05-06T16:23:37;24.60;99.90
1568;DHT22;777;47.156;8.326;2023-05-06T16:26:06;25.90;99.90
1568;DHT22;777;47.156;8.326;2023-05-06T16:28:33;26.80;99.90